Time;durP1;ratioP1;P1;durP2;ratioP2;P2;SDS_P1;SDS_P2;PMS_P1;PMS_P2;Temp;Humidity;BMP_temperature;BMP_pressure;BME280_temperature;BME280_humidity;BME280_pressure;Samples;Min_cycle;Max_cycle;Signal;HPM_P1;HPM_P2
2023/01/06 00:00:11;;;;;;;;;;;5.90;99.90;;;;;;5060006;28;19912;-79
2023/01/06 00:02:37;;;;;;;;;;;5.90;99.90;;;;;;5058166;28;19912;-79
2023/01/06 00:05:02;;;;;;;;;;;5.90;99.90;;;;;;5058427;28;19968;-79
2023/01/06 00:07:28;;;;;;;;;;;5.90;99.90;;;;;;5041240;28;19913;-78
2023/01/06 00:09:54;;;;;;;;;;;5.90;99.90;;;;;;5059239;28;20256;-78
2023/01/06 00:12:19;;;;;;;;;;;5.90;99.90;;;;;;5059252;28;19951;-79
2023/01/06 00:14:46;;;;;;;;;;;5.80;99.90;;;;;;5041419;28;19920;-79
2023/01/06 00:17:12;;;;;;;;;;;5.90;99.90;;;;;;5058934;28;19913;-79
2023/01/06 00:19:38;;;;;;;;;;;5.80;99.90;;;;;;5074693;28;19913;-78
2023/01/06 00:22:04;;;;;;;;;;;5.90;99.90;;;;;;5057606;28;19966;-79
2023/01/06 00:24:33;;;;;;;;;;;5.90;99.90;;;;;;5058957;28;20392;-78
2023/01/06 00:26:58;;;;;;;;;;;5.80;99.90;;;;;;5041321;28;19920;-78
2023/01/06 00:29:24;;;;;;;;;;;5.80;99.90;;;;;;5057052;28;19909;-76
2023/01/06 00:31:50;;;;;;;;;;;5.80;99.90;;;;;;5038591;28;19909;-76
2023/01/06 00:34:15;;;;;;;;;;;5.80;99.90;;;;;;5055155;28;19920;-76
2023/01/06 00:36:41;;;;;;;;;;;5.80;99.90;;;;;;5056286;28;20364;-76
2023/01/06 00:39:07;;;;;;;;;;;5.80;99.90;;;;;;5056005;28;19917;-76
2023/01/06 00:44:16;;;;;;;;;;;5.70;99.90;;;;;;5056807;28;20341;-76
2023/01/06 00:46:42;;;;;;;;;;;5.70;99.90;;;;;;5037792;28;19917;-76
2023/01/06 00:49:08;;;;;;;;;;;5.70;99.90;;;;;;5054641;28;19913;-76
2023/01/06 00:51:34;;;;;;;;;;;5.70;99.90;;;;;;5038866;28;19959;-76
2023/01/06 00:54:00;;;;;;;;;;;5.70;99.90;;;;;;5021365;28;20295;-76
2023/01/06 00:56:25;;;;;;;;;;;5.70;99.90;;;;;;5071261;28;19915;-76
2023/01/06 00:58:51;;;;;;;;;;;5.70;99.90;;;;;;5037802;28;20307;-76
2023/01/06 01:01:17;;;;;;;;;;;5.60;99.90;;;;;;5056123;28;20016;-76
2023/01/06 01:03:42;;;;;;;;;;;5.60;99.90;;;;;;5055749;28;20434;-76
2023/01/06 01:06:09;;;;;;;;;;;5.60;99.90;;;;;;5055966;28;20372;-76
2023/01/06 01:08:34;;;;;;;;;;;5.60;99.90;;;;;;5056028;28;19915;-76
2023/01/06 01:11:04;;;;;;;;;;;5.60;99.90;;;;;;5037573;28;19916;-76
2023/01/06 01:13:30;;;;;;;;;;;5.60;99.90;;;;;;5055661;28;19909;-76
2023/01/06 01:15:55;;;;;;;;;;;5.60;99.90;;;;;;5055678;28;19915;-76
2023/01/06 01:18:21;;;;;;;;;;;5.60;99.90;;;;;;5055426;28;20383;-77
2023/01/06 01:20:46;;;;;;;;;;;5.60;99.90;;;;;;5037490;28;19916;-76
2023/01/06 01:23:12;;;;;;;;;;;5.60;99.90;;;;;;5037709;28;20319;-76
2023/01/06 01:25:39;;;;;;;;;;;5.60;99.90;;;;;;5055249;28;19913;-76
2023/01/06 01:28:05;;;;;;;;;;;5.60;99.90;;;;;;5055905;28;20447;-76
2023/01/06 01:30:31;;;;;;;;;;;5.50;99.90;;;;;;5055408;28;19999;-76
2023/01/06 01:32:56;;;;;;;;;;;5.50;99.90;;;;;;5037444;28;19909;-76
2023/01/06 01:35:22;;;;;;;;;;;5.50;99.90;;;;;;5054109;28;20015;-76
2023/01/06 01:37:48;;;;;;;;;;;5.50;99.90;;;;;;5053887;28;20364;-76
2023/01/06 01:40:13;;;;;;;;;;;5.50;99.90;;;;;;5037257;28;20299;-76
2023/01/06 01:42:39;;;;;;;;;;;5.50;99.90;;;;;;5037254;28;19913;-76
2023/01/06 01:45:06;;;;;;;;;;;5.50;99.90;;;;;;5053568;28;19916;-76
2023/01/06 01:47:34;;;;;;;;;;;5.50;99.90;;;;;;5054933;28;20359;-76
2023/01/06 01:50:12;;;;;;;;;;;5.40;99.90;;;;;;5054594;28;20338;-77
2023/01/06 01:52:38;;;;;;;;;;;5.40;99.90;;;;;;5054925;28;19909;-76
2023/01/06 01:55:05;;;;;;;;;;;5.40;99.90;;;;;;5055119;28;19908;-76
2023/01/06 01:57:34;;;;;;;;;;;5.40;99.90;;;;;;5036922;28;19915;-76
2023/01/06 02:00:00;;;;;;;;;;;5.30;99.90;;;;;;5036729;28;20352;-76
2023/01/06 02:02:28;;;;;;;;;;;5.20;99.90;;;;;;5053998;28;19912;-76
2023/01/06 02:04:54;;;;;;;;;;;5.20;99.90;;;;;;5053653;28;19916;-76
2023/01/06 02:07:21;;;;;;;;;;;5.20;99.90;;;;;;5037198;28;19913;-76
2023/01/06 02:09:53;;;;;;;;;;;5.10;99.90;;;;;;5054484;28;19951;-76
2023/01/06 02:12:18;;;;;;;;;;;5.10;99.90;;;;;;5036613;28;19908;-77
2023/01/06 02:14:44;;;;;;;;;;;5.10;99.90;;;;;;5054439;28;20326;-76
2023/01/06 02:17:09;;;;;;;;;;;5.10;99.90;;;;;;5054558;28;20276;-76
2023/01/06 02:19:47;;;;;;;;;;;5.00;99.90;;;;;;5036014;28;19959;-76
2023/01/06 02:22:31;;;;;;;;;;;5.00;99.90;;;;;;5036412;28;19913;-76
2023/01/06 02:25:10;;;;;;;;;;;5.00;99.90;;;;;;5036247;28;19909;-76
2023/01/06 02:27:51;;;;;;;;;;;4.90;99.90;;;;;;5036436;28;19909;-76
2023/01/06 02:30:19;;;;;;;;;;;4.90;99.90;;;;;;5054614;28;19909;-76
2023/01/06 02:32:51;;;;;;;;;;;4.80;99.90;;;;;;5036057;28;19916;-76
2023/01/06 02:35:29;;;;;;;;;;;4.80;99.90;;;;;;5032672;28;19916;-76
2023/01/06 02:38:09;;;;;;;;;;;4.70;99.90;;;;;;5049403;28;20361;-76
2023/01/06 02:40:53;;;;;;;;;;;4.70;99.90;;;;;;5016560;28;20284;-76
2023/01/06 02:43:18;;;;;;;;;;;4.80;99.90;;;;;;5034085;28;20059;-76
2023/01/06 02:45:44;;;;;;;;;;;4.70;99.90;;;;;;5034052;28;20372;-76
2023/01/06 02:48:15;;;;;;;;;;;4.70;99.90;;;;;;5049435;28;19964;-76
2023/01/06 02:50:51;;;;;;;;;;;4.60;99.90;;;;;;5053722;28;19908;-76
2023/01/06 02:53:20;;;;;;;;;;;4.50;99.90;;;;;;5052514;28;19956;-76
2023/01/06 02:55:47;;;;;;;;;;;4.50;99.90;;;;;;5035717;28;19913;-76
2023/01/06 02:58:21;;;;;;;;;;;4.40;99.90;;;;;;5035650;28;19909;-76
2023/01/06 03:00:59;;;;;;;;;;;4.40;99.90;;;;;;5035680;28;19959;-76
2023/01/06 03:03:28;;;;;;;;;;;4.40;99.90;;;;;;5054011;28;19908;-76
2023/01/06 03:05:56;;;;;;;;;;;4.40;99.90;;;;;;5035605;28;19944;-76
2023/01/06 03:08:25;;;;;;;;;;;4.30;99.90;;;;;;5035635;28;19913;-76
2023/01/06 03:10:51;;;;;;;;;;;4.30;99.90;;;;;;5053958;28;19909;-76
2023/01/06 03:13:26;;;;;;;;;;;4.30;99.90;;;;;;5053410;28;19958;-76
2023/01/06 03:15:52;;;;;;;;;;;4.30;99.90;;;;;;5053619;28;19962;-76
2023/01/06 03:18:18;;;;;;;;;;;4.30;99.90;;;;;;5032357;28;20307;-76
2023/01/06 03:20:44;;;;;;;;;;;4.30;99.90;;;;;;5032158;28;19971;-76
2023/01/06 03:23:11;;;;;;;;;;;4.30;99.90;;;;;;5033666;28;19913;-76
2023/01/06 03:25:37;;;;;;;;;;;4.20;99.90;;;;;;5033574;28;20279;-76
2023/01/06 03:28:03;;;;;;;;;;;4.20;99.90;;;;;;5033528;28;19909;-76
2023/01/06 03:30:36;;;;;;;;;;;4.30;99.90;;;;;;5033919;28;19960;-76
2023/01/06 03:33:05;;;;;;;;;;;4.30;99.90;;;;;;5015846;28;19958;-76
2023/01/06 03:35:43;;;;;;;;;;;4.30;99.90;;;;;;5046271;28;20372;-76
2023/01/06 03:38:11;;;;;;;;;;;4.30;99.90;;;;;;5035476;28;20022;-76
2023/01/06 03:40:50;;;;;;;;;;;4.40;99.90;;;;;;5054709;28;19919;-79
2023/01/06 03:43:18;;;;;;;;;;;4.30;99.90;;;;;;5072102;28;19908;-79
2023/01/06 03:45:52;;;;;;;;;;;4.30;99.90;;;;;;5056039;28;19916;-79
2023/01/06 03:48:23;;;;;;;;;;;4.30;99.90;;;;;;5038396;28;19923;-79
2023/01/06 03:50:51;;;;;;;;;;;4.30;99.90;;;;;;5055916;28;19909;-79
2023/01/06 03:53:17;;;;;;;;;;;4.30;99.90;;;;;;5055844;28;19916;-79
2023/01/06 03:55:45;;;;;;;;;;;4.20;99.90;;;;;;5056146;28;20379;-79
2023/01/06 03:58:11;;;;;;;;;;;4.20;99.90;;;;;;5055124;28;19932;-79
2023/01/06 04:00:36;;;;;;;;;;;4.20;99.90;;;;;;5055299;28;20396;-79
2023/01/06 04:03:06;;;;;;;;;;;4.20;99.90;;;;;;5037939;28;19916;-79
2023/01/06 04:05:31;;;;;;;;;;;4.20;99.90;;;;;;5055763;28;20360;-79
2023/01/06 04:07:57;;;;;;;;;;;4.20;99.90;;;;;;5055542;28;19976;-79
2023/01/06 04:10:23;;;;;;;;;;;4.20;99.90;;;;;;5038085;28;19972;-79
2023/01/06 04:12:49;;;;;;;;;;;4.20;99.90;;;;;;5070702;28;20383;-79
2023/01/06 04:15:16;;;;;;;;;;;4.10;99.90;;;;;;5054407;28;20000;-79
2023/01/06 04:17:42;;;;;;;;;;;4.10;99.90;;;;;;5055274;28;19932;-79
2023/01/06 04:20:09;;;;;;;;;;;4.10;99.90;;;;;;5055147;28;20378;-79
2023/01/06 04:22:35;;;;;;;;;;;4.10;99.90;;;;;;5037440;28;19913;-79
2023/01/06 04:25:01;;;;;;;;;;;4.00;99.90;;;;;;5057931;28;19919;-79
2023/01/06 04:27:26;;;;;;;;;;;4.00;99.90;;;;;;5075102;28;19916;-79
2023/01/06 04:29:52;;;;;;;;;;;4.00;99.90;;;;;;5041137;28;19913;-79
2023/01/06 04:32:18;;;;;;;;;;;3.90;99.90;;;;;;5041343;28;19959;-79
2023/01/06 04:34:43;;;;;;;;;;;3.90;99.90;;;;;;5058911;28;19989;-79
2023/01/06 04:37:09;;;;;;;;;;;3.90;99.90;;;;;;5058642;28;19909;-79
2023/01/06 04:39:35;;;;;;;;;;;3.80;99.90;;;;;;5058749;28;19917;-79
2023/01/06 04:42:00;;;;;;;;;;;3.80;99.90;;;;;;5024012;28;19917;-79
2023/01/06 04:44:26;;;;;;;;;;;3.80;99.90;;;;;;5058080;28;19913;-79
2023/01/06 04:46:51;;;;;;;;;;;3.80;99.90;;;;;;5040736;28;19962;-79
2023/01/06 04:49:17;;;;;;;;;;;3.80;99.90;;;;;;5057790;28;19913;-79
2023/01/06 04:51:42;;;;;;;;;;;3.80;99.90;;;;;;5057183;28;19924;-79
2023/01/06 04:54:08;;;;;;;;;;;3.80;99.90;;;;;;5058145;28;19948;-79
2023/01/06 04:56:33;;;;;;;;;;;3.80;99.90;;;;;;5056885;28;20304;-79
2023/01/06 04:58:59;;;;;;;;;;;3.80;99.90;;;;;;5040080;28;19963;-79
2023/01/06 05:01:25;;;;;;;;;;;3.70;99.90;;;;;;5018867;28;19925;-79
2023/01/06 05:03:51;;;;;;;;;;;3.70;99.90;;;;;;5055837;28;19909;-79
2023/01/06 05:06:17;;;;;;;;;;;3.70;99.90;;;;;;5036517;28;19948;-79
2023/01/06 05:08:43;;;;;;;;;;;3.60;99.90;;;;;;5040123;28;19909;-79
2023/01/06 05:11:08;;;;;;;;;;;3.60;99.90;;;;;;5022596;28;20356;-79
2023/01/06 05:13:34;;;;;;;;;;;3.50;99.90;;;;;;5039265;28;19976;-79
2023/01/06 05:16:00;;;;;;;;;;;3.40;99.90;;;;;;5057715;28;19909;-79
2023/01/06 05:18:25;;;;;;;;;;;3.40;99.90;;;;;;5039000;28;19909;-79
2023/01/06 05:20:52;;;;;;;;;;;3.30;99.90;;;;;;5057574;28;19932;-79
2023/01/06 05:23:17;;;;;;;;;;;3.30;99.90;;;;;;5043389;28;19916;-79
2023/01/06 05:25:43;;;;;;;;;;;3.30;99.90;;;;;;5057820;28;19909;-79
2023/01/06 05:28:09;;;;;;;;;;;3.30;99.90;;;;;;5039608;28;20364;-79
2023/01/06 05:30:34;;;;;;;;;;;3.20;99.90;;;;;;5057729;28;19963;-79
2023/01/06 05:33:00;;;;;;;;;;;3.20;99.90;;;;;;5057999;28;20280;-79
2023/01/06 05:35:26;;;;;;;;;;;3.20;99.90;;;;;;5040198;28;20434;-79
2023/01/06 05:37:55;;;;;;;;;;;3.20;99.90;;;;;;5038773;28;20004;-79
2023/01/06 05:40:21;;;;;;;;;;;3.10;99.90;;;;;;5039508;28;19916;-79
2023/01/06 05:42:46;;;;;;;;;;;3.10;99.90;;;;;;5040157;28;19909;-79
2023/01/06 05:45:12;;;;;;;;;;;3.10;99.90;;;;;;5057530;28;20012;-79
2023/01/06 05:47:37;;;;;;;;;;;3.10;99.90;;;;;;5039508;28;19921;-79
2023/01/06 05:50:03;;;;;;;;;;;3.10;99.90;;;;;;5050514;28;20018;-77
2023/01/06 05:52:29;;;;;;;;;;;3.00;99.90;;;;;;5039507;28;19916;-79
2023/01/06 05:54:54;;;;;;;;;;;3.00;99.90;;;;;;5039309;28;20378;-79
2023/01/06 05:57:20;;;;;;;;;;;3.00;99.90;;;;;;5038709;28;19913;-79
2023/01/06 05:59:45;;;;;;;;;;;3.00;99.90;;;;;;5018652;28;19941;-79
2023/01/06 06:02:11;;;;;;;;;;;3.00;99.90;;;;;;5055923;28;20297;-79
2023/01/06 06:04:37;;;;;;;;;;;3.00;99.90;;;;;;5039275;28;19944;-79
2023/01/06 06:07:02;;;;;;;;;;;3.00;99.90;;;;;;5057036;28;19919;-79
2023/01/06 06:09:28;;;;;;;;;;;3.00;99.90;;;;;;5038857;28;19913;-79
2023/01/06 06:11:53;;;;;;;;;;;3.00;99.90;;;;;;5038918;28;19944;-79
2023/01/06 06:14:19;;;;;;;;;;;2.90;99.90;;;;;;5057218;28;19909;-79
2023/01/06 06:16:45;;;;;;;;;;;2.90;99.90;;;;;;5045271;28;19955;-79
2023/01/06 06:19:11;;;;;;;;;;;2.80;99.90;;;;;;5056815;28;19916;-78
2023/01/06 06:21:37;;;;;;;;;;;2.80;99.90;;;;;;5035318;28;19920;-78
2023/01/06 06:24:02;;;;;;;;;;;2.80;99.90;;;;;;5035858;28;20295;-78
2023/01/06 06:26:28;;;;;;;;;;;2.80;99.90;;;;;;5056341;28;19913;-78
2023/01/06 06:28:53;;;;;;;;;;;2.70;99.90;;;;;;5038406;28;19920;-78
2023/01/06 06:31:21;;;;;;;;;;;2.70;99.90;;;;;;5038115;28;20898;-78
2023/01/06 06:33:51;;;;;;;;;;;2.70;99.90;;;;;;5056086;28;19940;-78
2023/01/06 06:36:17;;;;;;;;;;;2.70;99.90;;;;;;5056344;28;19908;-78
2023/01/06 06:38:43;;;;;;;;;;;2.70;99.90;;;;;;5055744;28;19920;-78
2023/01/06 06:41:09;;;;;;;;;;;2.60;99.90;;;;;;5071802;28;19927;-78
2023/01/06 06:43:34;;;;;;;;;;;2.60;99.90;;;;;;5033833;28;20362;-78
2023/01/06 06:46:00;;;;;;;;;;;2.60;99.90;;;;;;5056409;28;20003;-78
2023/01/06 06:48:29;;;;;;;;;;;2.60;99.90;;;;;;5055554;28;19928;-78
2023/01/06 06:50:58;;;;;;;;;;;2.50;99.90;;;;;;5038161;28;19951;-78
2023/01/06 06:53:24;;;;;;;;;;;2.50;99.90;;;;;;5071268;28;19935;-78
2023/01/06 06:55:50;;;;;;;;;;;2.50;99.90;;;;;;5056198;28;20365;-78
2023/01/06 06:58:16;;;;;;;;;;;2.50;99.90;;;;;;5037088;28;19916;-78
2023/01/06 07:00:41;;;;;;;;;;;2.40;99.90;;;;;;5038273;28;20295;-78
2023/01/06 07:03:07;;;;;;;;;;;2.40;99.90;;;;;;5045251;28;19962;-78
2023/01/06 07:05:32;;;;;;;;;;;2.50;99.90;;;;;;5056512;28;20284;-79
2023/01/06 07:07:58;;;;;;;;;;;2.40;99.90;;;;;;5056399;28;19966;-78
2023/01/06 07:10:23;;;;;;;;;;;2.40;99.90;;;;;;5056504;28;20395;-78
2023/01/06 07:12:49;;;;;;;;;;;2.40;99.90;;;;;;5036497;28;20373;-78
2023/01/06 07:15:14;;;;;;;;;;;2.40;99.90;;;;;;5056000;28;19909;-78
2023/01/06 07:17:40;;;;;;;;;;;2.40;99.90;;;;;;5038297;28;19913;-78
2023/01/06 07:20:06;;;;;;;;;;;2.40;99.90;;;;;;5056383;28;19912;-78
2023/01/06 07:22:35;;;;;;;;;;;2.40;99.90;;;;;;5037835;28;20284;-78
2023/01/06 07:25:00;;;;;;;;;;;2.30;99.90;;;;;;5037837;28;19909;-78
2023/01/06 07:27:26;;;;;;;;;;;2.30;99.90;;;;;;5037798;28;20134;-78
2023/01/06 07:29:51;;;;;;;;;;;2.20;99.90;;;;;;5055620;28;19924;-78
2023/01/06 07:32:17;;;;;;;;;;;2.20;99.90;;;;;;5055853;28;19913;-78
2023/01/06 07:34:43;;;;;;;;;;;2.20;99.90;;;;;;5035021;28;19917;-78
2023/01/06 07:37:08;;;;;;;;;;;2.20;99.90;;;;;;5034428;28;20008;-78
2023/01/06 07:39:34;;;;;;;;;;;2.10;99.90;;;;;;5036339;28;20369;-78
2023/01/06 07:41:59;;;;;;;;;;;2.10;99.90;;;;;;5036426;28;20336;-78
2023/01/06 07:44:25;;;;;;;;;;;2.00;99.90;;;;;;5036120;28;19920;-78
2023/01/06 07:46:50;;;;;;;;;;;2.00;99.90;;;;;;5034554;28;19913;-78
2023/01/06 07:49:16;;;;;;;;;;;2.00;99.90;;;;;;5035292;28;19929;-78
2023/01/06 07:51:42;;;;;;;;;;;2.00;99.90;;;;;;5036061;28;20018;-78
2023/01/06 07:54:07;;;;;;;;;;;2.00;99.90;;;;;;5018414;28;19909;-78
2023/01/06 07:56:33;;;;;;;;;;;2.00;99.90;;;;;;5018113;28;19917;-78
2023/01/06 07:58:58;;;;;;;;;;;2.00;99.90;;;;;;5035533;28;19914;-78
2023/01/06 08:01:24;;;;;;;;;;;2.00;99.90;;;;;;5021816;28;19924;-78
2023/01/06 08:03:49;;;;;;;;;;;2.00;99.90;;;;;;5039963;28;20054;-78
2023/01/06 08:06:15;;;;;;;;;;;2.00;99.90;;;;;;5041072;28;19913;-78
2023/01/06 08:08:41;;;;;;;;;;;2.00;99.90;;;;;;5060492;28;19909;-78
2023/01/06 08:11:07;;;;;;;;;;;2.00;99.90;;;;;;5060002;28;20349;-78
2023/01/06 08:13:33;;;;;;;;;;;2.00;99.90;;;;;;5041613;28;20326;-78
2023/01/06 08:15:58;;;;;;;;;;;2.00;99.90;;;;;;5041433;28;20008;-78
2023/01/06 08:18:24;;;;;;;;;;;2.10;99.90;;;;;;5060183;28;19909;-78
2023/01/06 08:20:50;;;;;;;;;;;2.10;99.90;;;;;;5025201;28;20391;-78
2023/01/06 08:23:15;;;;;;;;;;;2.00;99.90;;;;;;5074628;28;19909;-78
2023/01/06 08:25:41;;;;;;;;;;;2.00;99.90;;;;;;5074557;28;19909;-78
2023/01/06 08:28:06;;;;;;;;;;;2.00;99.90;;;;;;5041349;28;19927;-78
2023/01/06 08:30:38;;;;;;;;;;;2.00;99.90;;;;;;5024407;28;19959;-78
2023/01/06 08:33:04;;;;;;;;;;;2.00;99.90;;;;;;5041065;28;19963;-78
2023/01/06 08:35:29;;;;;;;;;;;2.00;99.90;;;;;;5059027;28;19908;-78
2023/01/06 08:37:56;;;;;;;;;;;2.00;99.90;;;;;;5058583;28;19909;-78
2023/01/06 08:40:22;;;;;;;;;;;2.00;99.90;;;;;;5058748;28;19920;-78
2023/01/06 08:42:47;;;;;;;;;;;2.10;99.90;;;;;;5040674;28;19916;-78
2023/01/06 08:45:13;;;;;;;;;;;2.10;99.90;;;;;;5058905;28;19944;-78
2023/01/06 08:47:38;;;;;;;;;;;2.10;99.90;;;;;;5058886;28;19928;-78
2023/01/06 08:50:05;;;;;;;;;;;2.10;99.90;;;;;;5040674;28;20364;-78
2023/01/06 08:52:30;;;;;;;;;;;2.00;99.90;;;;;;5058502;28;19913;-78
2023/01/06 08:54:56;;;;;;;;;;;2.10;99.90;;;;;;5041046;28;19913;-78
2023/01/06 08:57:21;;;;;;;;;;;2.10;99.90;;;;;;5058165;28;20415;-78
2023/01/06 08:59:47;;;;;;;;;;;2.10;99.90;;;;;;5040052;28;20007;-78
2023/01/06 09:02:12;;;;;;;;;;;2.20;99.90;;;;;;5040681;28;19927;-78
2023/01/06 09:04:38;;;;;;;;;;;2.30;99.90;;;;;;5058999;28;20360;-78
2023/01/06 09:07:03;;;;;;;;;;;2.30;99.90;;;;;;5040835;28;19970;-78
2023/01/06 09:09:29;;;;;;;;;;;2.40;99.90;;;;;;5039999;28;19913;-78
2023/01/06 09:11:55;;;;;;;;;;;2.50;99.90;;;;;;5037938;28;19913;-77
2023/01/06 09:14:20;;;;;;;;;;;2.50;99.90;;;;;;5037937;28;19980;-77
2023/01/06 09:16:47;;;;;;;;;;;2.60;99.90;;;;;;5055890;28;19999;-77
2023/01/06 09:19:13;;;;;;;;;;;2.70;99.90;;;;;;5055819;28;19917;-77
2023/01/06 09:21:41;;;;;;;;;;;2.70;99.90;;;;;;5055685;28;19967;-77
2023/01/06 09:24:11;;;;;;;;;;;2.70;99.90;;;;;;5056196;28;19920;-77
2023/01/06 09:26:36;;;;;;;;;;;2.80;99.90;;;;;;5037589;28;19916;-77
2023/01/06 09:29:02;;;;;;;;;;;2.80;99.90;;;;;;5055546;28;19913;-77
2023/01/06 09:31:27;;;;;;;;;;;2.90;99.90;;;;;;5038426;28;19913;-77
2023/01/06 09:33:53;;;;;;;;;;;2.90;99.90;;;;;;5070709;28;19948;-77
2023/01/06 09:36:18;;;;;;;;;;;2.90;99.90;;;;;;5070605;28;19909;-77
2023/01/06 09:38:44;;;;;;;;;;;3.00;99.90;;;;;;5037153;28;19979;-77
2023/01/06 09:41:12;;;;;;;;;;;3.00;99.90;;;;;;5055331;28;19957;-77
2023/01/06 09:43:41;;;;;;;;;;;3.00;99.90;;;;;;5055253;28;20046;-77
2023/01/06 09:46:07;;;;;;;;;;;3.00;99.90;;;;;;5055335;28;19970;-77
2023/01/06 09:48:38;;;;;;;;;;;3.10;99.90;;;;;;5070425;28;20490;-77
2023/01/06 09:51:05;;;;;;;;;;;3.10;99.90;;;;;;5036797;28;19909;-77
2023/01/06 09:53:31;;;;;;;;;;;3.20;99.90;;;;;;5055257;28;19970;-77
2023/01/06 09:55:59;;;;;;;;;;;3.20;99.90;;;;;;5037124;28;20410;-77
2023/01/06 09:58:57;;;;;;;;;;;3.30;99.90;;;;;;5070230;28;20466;-77
2023/01/06 10:01:26;;;;;;;;;;;3.30;99.90;;;;;;5004092;28;19924;-77
2023/01/06 10:03:52;;;;;;;;;;;3.40;99.90;;;;;;5036620;28;19916;-77
2023/01/06 10:06:17;;;;;;;;;;;3.50;99.90;;;;;;5033324;28;19913;-77
2023/01/06 10:08:43;;;;;;;;;;;3.60;99.90;;;;;;5034591;28;19909;-77
2023/01/06 10:11:08;;;;;;;;;;;3.70;99.90;;;;;;5034722;28;19940;-77
2023/01/06 10:13:56;;;;;;;;;;;3.70;99.90;;;;;;5033213;28;19963;-77
2023/01/06 10:16:36;;;;;;;;;;;3.80;99.90;;;;;;5017073;28;19932;-77
2023/01/06 10:19:08;;;;;;;;;;;3.90;99.90;;;;;;5016774;28;19909;-77
2023/01/06 10:21:38;;;;;;;;;;;4.00;99.90;;;;;;5015636;28;19917;-77
2023/01/06 10:24:11;;;;;;;;;;;4.00;99.90;;;;;;5017119;28;20016;-77
2023/01/06 10:26:43;;;;;;;;;;;4.10;99.90;;;;;;5034468;28;19925;-77
2023/01/06 10:29:18;;;;;;;;;;;4.10;99.90;;;;;;5034571;28;20304;-77
2023/01/06 10:31:45;;;;;;;;;;;4.30;99.90;;;;;;5016409;28;19909;-77
2023/01/06 10:34:31;;;;;;;;;;;4.40;99.90;;;;;;5017655;28;20423;-77
2023/01/06 10:37:09;;;;;;;;;;;4.40;99.90;;;;;;5052840;28;20258;-77
2023/01/06 10:39:36;;;;;;;;;;;4.50;99.90;;;;;;5034681;28;19979;-77
2023/01/06 10:44:56;;;;;;;;;;;4.50;99.90;;;;;;5054809;28;19936;-77
2023/01/06 10:47:24;;;;;;;;;;;4.60;99.90;;;;;;5046275;28;19925;-77
2023/01/06 10:49:50;;;;;;;;;;;4.60;99.90;;;;;;5036261;28;19919;-77
2023/01/06 10:52:15;;;;;;;;;;;4.70;99.90;;;;;;5053330;28;20007;-77
2023/01/06 10:54:42;;;;;;;;;;;4.70;99.90;;;;;;5035566;28;19917;-77
2023/01/06 10:57:14;;;;;;;;;;;4.70;99.90;;;;;;5053987;28;19947;-77
2023/01/06 10:59:58;;;;;;;;;;;4.80;99.90;;;;;;5041535;28;19948;-77
2023/01/06 11:02:24;;;;;;;;;;;4.80;99.90;;;;;;5049217;28;19963;-77
2023/01/06 11:04:50;;;;;;;;;;;4.90;99.90;;;;;;5023807;28;20319;-77
2023/01/06 11:07:16;;;;;;;;;;;5.00;99.90;;;;;;5053678;28;19940;-77
2023/01/06 11:09:43;;;;;;;;;;;5.10;99.90;;;;;;5066207;28;20288;-77
2023/01/06 11:12:11;;;;;;;;;;;5.10;99.90;;;;;;5035880;28;20347;-77
2023/01/06 11:14:38;;;;;;;;;;;5.20;99.90;;;;;;5054024;28;19909;-77
2023/01/06 11:17:06;;;;;;;;;;;5.20;99.90;;;;;;5035893;28;19924;-77
2023/01/06 11:19:41;;;;;;;;;;;5.30;99.90;;;;;;5053490;28;20003;-77
2023/01/06 11:22:25;;;;;;;;;;;5.40;99.90;;;;;;5033954;28;19913;-77
2023/01/06 11:24:52;;;;;;;;;;;5.50;99.90;;;;;;5052051;28;19923;-77
2023/01/06 11:27:17;;;;;;;;;;;5.60;99.90;;;;;;5053467;28;19948;-77
2023/01/06 11:29:43;;;;;;;;;;;5.80;99.90;;;;;;5034367;28;20352;-77
2023/01/06 11:32:22;;;;;;;;;;;5.90;99.90;;;;;;5053392;28;19959;-77
2023/01/06 11:34:53;;;;;;;;;;;5.90;99.90;;;;;;5057342;28;20000;-77
2023/01/06 11:37:47;;;;;;;;;;;5.90;99.90;;;;;;5057501;28;19938;-77
2023/01/06 11:40:28;;;;;;;;;;;6.00;99.90;;;;;;5026768;28;19913;-78
2023/01/06 11:42:57;;;;;;;;;;;6.10;99.90;;;;;;5057257;28;19913;-77
2023/01/06 11:45:32;;;;;;;;;;;6.20;99.90;;;;;;5057433;28;19909;-77
2023/01/06 11:47:58;;;;;;;;;;;6.20;99.90;;;;;;5037953;28;19959;-77
2023/01/06 11:50:23;;;;;;;;;;;6.20;99.90;;;;;;5055647;28;19952;-77
2023/01/06 11:52:59;;;;;;;;;;;6.30;99.90;;;;;;5056490;28;20007;-77
2023/01/06 11:55:26;;;;;;;;;;;6.30;99.90;;;;;;5039176;28;20288;-77
2023/01/06 11:57:58;;;;;;;;;;;6.40;99.90;;;;;;5057276;28;19995;-77
2023/01/06 12:00:27;;;;;;;;;;;6.40;99.90;;;;;;5057163;28;20364;-77
2023/01/06 12:03:11;;;;;;;;;;;6.40;99.90;;;;;;5038877;28;19913;-77
2023/01/06 12:05:38;;;;;;;;;;;6.40;99.90;;;;;;5057076;28;19909;-77
2023/01/06 12:08:06;;;;;;;;;;;6.50;99.90;;;;;;5038700;28;19919;-77
2023/01/06 12:10:33;;;;;;;;;;;6.60;99.90;;;;;;5057181;28;20386;-77
2023/01/06 12:12:58;;;;;;;;;;;6.70;99.90;;;;;;5038986;28;19909;-77
2023/01/06 12:15:26;;;;;;;;;;;6.70;99.90;;;;;;5056997;28;19921;-77
2023/01/06 12:18:18;;;;;;;;;;;6.80;99.90;;;;;;5056676;28;19913;-77
2023/01/06 12:20:46;;;;;;;;;;;6.90;99.90;;;;;;5054417;28;19913;-77
2023/01/06 12:23:24;;;;;;;;;;;6.90;99.90;;;;;;5054589;28;20312;-77
2023/01/06 12:25:54;;;;;;;;;;;6.90;99.90;;;;;;5018953;28;20281;-77
2023/01/06 12:28:23;;;;;;;;;;;7.00;99.90;;;;;;5038480;28;20385;-77
2023/01/06 12:31:07;;;;;;;;;;;7.00;99.90;;;;;;5055438;28;19917;-77
2023/01/06 12:33:43;;;;;;;;;;;7.10;99.90;;;;;;5067726;28;19924;-77
2023/01/06 12:36:12;;;;;;;;;;;7.10;99.90;;;;;;5053680;28;19948;-77
2023/01/06 12:38:41;;;;;;;;;;;7.30;99.90;;;;;;5036064;28;20002;-77
2023/01/06 12:41:22;;;;;;;;;;;7.40;99.90;;;;;;5051957;28;20391;-77
2023/01/06 12:44:08;;;;;;;;;;;7.50;99.90;;;;;;5056018;28;20327;-77
2023/01/06 12:46:42;;;;;;;;;;;7.60;99.90;;;;;;5054459;28;19940;-77
2023/01/06 12:49:16;;;;;;;;;;;7.70;99.90;;;;;;5055781;28;19909;-77
2023/01/06 12:51:46;;;;;;;;;;;7.70;99.90;;;;;;5054516;28;20003;-77
2023/01/06 12:54:26;;;;;;;;;;;7.80;99.90;;;;;;5071449;28;19999;-77
2023/01/06 12:56:55;;;;;;;;;;;7.90;99.90;;;;;;5055012;28;19909;-77
2023/01/06 12:59:26;;;;;;;;;;;8.00;99.90;;;;;;5055473;28;19908;-77
2023/01/06 13:01:54;;;;;;;;;;;8.10;99.90;;;;;;5034416;28;19964;-76
2023/01/06 13:04:39;;;;;;;;;;;8.20;99.90;;;;;;5033835;28;19909;-77
2023/01/06 13:07:08;;;;;;;;;;;8.20;99.90;;;;;;5066360;28;19912;-77
2023/01/06 13:09:48;;;;;;;;;;;8.30;99.90;;;;;;5054288;28;20003;-77
2023/01/06 13:12:14;;;;;;;;;;;8.40;99.90;;;;;;5055519;28;19915;-77
2023/01/06 13:14:58;;;;;;;;;;;8.40;99.90;;;;;;5054163;28;19995;-77
2023/01/06 13:17:43;;;;;;;;;;;8.50;99.90;;;;;;5034227;28;19932;-77
2023/01/06 13:20:17;;;;;;;;;;;8.60;99.90;;;;;;5017980;28;19952;-77
2023/01/06 13:23:03;;;;;;;;;;;8.60;99.90;;;;;;5037320;28;19923;-78
2023/01/06 13:25:39;;;;;;;;;;;8.60;99.90;;;;;;5022523;28;19916;-78
2023/01/06 13:28:08;;;;;;;;;;;8.60;99.90;;;;;;5022233;28;20399;-78
2023/01/06 13:30:40;;;;;;;;;;;8.70;99.90;;;;;;5036452;28;19925;-77
2023/01/06 13:33:24;;;;;;;;;;;8.60;99.90;;;;;;5036354;28;19915;-78
2023/01/06 13:36:08;;;;;;;;;;;8.70;99.90;;;;;;5053881;28;19916;-78
2023/01/06 13:38:52;;;;;;;;;;;8.60;99.90;;;;;;5074687;28;19916;-79
2023/01/06 13:41:20;;;;;;;;;;;8.50;99.90;;;;;;5059419;28;19917;-78
2023/01/06 13:43:47;;;;;;;;;;;8.50;99.90;;;;;;5039884;28;19916;-78
2023/01/06 13:46:15;;;;;;;;;;;8.50;99.90;;;;;;5056424;28;19916;-78
2023/01/06 13:48:43;;;;;;;;;;;8.40;99.90;;;;;;5056737;28;19912;-77
2023/01/06 13:51:10;;;;;;;;;;;8.50;99.90;;;;;;5038173;28;19916;-77
2023/01/06 13:53:40;;;;;;;;;;;8.40;99.90;;;;;;5055720;28;19909;-77
2023/01/06 13:56:11;;;;;;;;;;;8.40;99.90;;;;;;5055361;28;19915;-77
2023/01/06 13:58:40;;;;;;;;;;;8.40;99.90;;;;;;5055601;28;19909;-78
2023/01/06 14:01:09;;;;;;;;;;;8.40;99.90;;;;;;5055844;28;19979;-77
2023/01/06 14:03:39;;;;;;;;;;;8.30;99.90;;;;;;5056483;28;19927;-78
2023/01/06 14:06:08;;;;;;;;;;;8.30;99.90;;;;;;5058913;28;19909;-79
2023/01/06 14:08:39;;;;;;;;;;;8.30;99.90;;;;;;5039156;28;20283;-78
2023/01/06 14:11:15;;;;;;;;;;;8.20;99.90;;;;;;5056845;28;19913;-78
2023/01/06 14:13:42;;;;;;;;;;;8.20;99.90;;;;;;5057071;28;19916;-78
2023/01/06 14:16:10;;;;;;;;;;;8.20;99.90;;;;;;5072090;28;19917;-78
2023/01/06 14:18:51;;;;;;;;;;;8.20;99.90;;;;;;5112519;27;20391;-76
2023/01/06 14:21:19;;;;;;;;;;;8.20;99.90;;;;;;5111696;28;19912;-76
2023/01/06 14:23:49;;;;;;;;;;;8.10;99.90;;;;;;5112984;28;19962;-79
2023/01/06 14:26:14;;;;;;;;;;;8.10;99.90;;;;;;5113822;28;19938;-79
2023/01/06 14:28:40;;;;;;;;;;;8.10;99.90;;;;;;5115111;28;19908;-79
2023/01/06 14:31:24;;;;;;;;;;;8.10;99.90;;;;;;5115174;28;19981;-79
2023/01/06 14:33:55;;;;;;;;;;;8.10;99.90;;;;;;5115700;28;19908;-79
2023/01/06 14:36:21;;;;;;;;;;;8.10;99.90;;;;;;5098044;28;19998;-79
2023/01/06 14:38:48;;;;;;;;;;;8.00;99.90;;;;;;5113174;28;19912;-79
2023/01/06 14:41:36;;;;;;;;;;;8.00;99.90;;;;;;5113574;28;19930;-79
2023/01/06 14:44:04;;;;;;;;;;;8.00;99.90;;;;;;5096290;28;19908;-79